Pismo Beach, California
Current Conditions -  °F | °C
As of 11:56 PM on Tuesday 21 Oct 2014 (Local Time) from KSBP Reporting Station
Clear Clear  
Wind Chill: 19°   Ceiling: Unl
Heat Index: 19°   Visibility: 10mi
Dew Point:   Wind: 8mph
Humidity: 37%   Direction: 360°N
Pressure: 29.97"   Gusts: NA
Location:  35.16°N, 120.66°W
Report Text: KSBP 220656Z AUTO 36007KT 10SM CLR 19/04 A2997 RMK AO2 SLP145 T01940044
Loading
Personal Weather Stations






























Interactive Weather Map
Tropical Storm Tracking
New forecast layout! Learn more

10-Day Weather Forecast

Advertisements
Track Severe Weather on mobile